createdAt,value
2018-06-19T00:01:19.975Z,101024.70
2018-06-19T00:03:50.083Z,101020.42
2018-06-19T00:06:19.905Z,101041.05
2018-06-19T00:08:49.666Z,101037.91
2018-06-19T00:11:19.578Z,101033.63
2018-06-19T00:13:49.443Z,101022.19
2018-06-19T00:16:19.045Z,101019.33
2018-06-19T00:18:51.904Z,101013.40
2018-06-19T00:21:27.898Z,101013.75
2018-06-19T00:23:57.629Z,101010.57
2018-06-19T00:26:27.166Z,100999.92
2018-06-19T00:28:56.619Z,101003.10
2018-06-19T00:31:26.232Z,100999.08
2018-06-19T00:33:55.642Z,100998.39
2018-06-19T00:36:25.084Z,100991.81
2018-06-19T00:38:54.939Z,100990.39
2018-06-19T00:41:24.464Z,100996.96
2018-06-19T00:43:54.043Z,100993.04
2018-06-19T00:46:26.042Z,100996.52
2018-06-19T00:48:55.675Z,101003.59
2018-06-19T00:51:25.428Z,101002.31
2018-06-19T00:53:55.077Z,101006.34
2018-06-19T00:56:35.446Z,101001.78
2018-06-19T00:59:05.203Z,101003.89
2018-06-19T01:01:34.966Z,100997.11
2018-06-19T01:04:04.493Z,101015.39
2018-06-19T01:06:34.164Z,101022.23
2018-06-19T01:09:05.163Z,101016.98
2018-06-19T01:11:34.783Z,101000.25
2018-06-19T01:14:04.552Z,101008.98
2018-06-19T01:16:34.260Z,100990.88
2018-06-19T01:19:03.659Z,100993.04
2018-06-19T01:21:33.261Z,100998.34
2018-06-19T01:24:02.875Z,100992.30
2018-06-19T01:26:32.240Z,100992.25
2018-06-19T01:29:01.870Z,100991.46
2018-06-19T01:31:31.473Z,100990.72
2018-06-19T01:34:00.991Z,100991.20
2018-06-19T01:36:30.704Z,100984.53
2018-06-19T01:39:00.438Z,100987.22
2018-06-19T01:41:29.920Z,100984.40
2018-06-19T01:43:59.675Z,100984.53
2018-06-19T01:46:29.282Z,100981.83
2018-06-19T01:48:58.761Z,100880.34
2018-06-19T01:51:28.618Z,100988.27
2018-06-19T01:53:58.682Z,101002.84
2018-06-19T01:56:28.811Z,101013.49
2018-06-19T01:58:58.397Z,101009.16
2018-06-19T02:01:28.290Z,100998.08
2018-06-19T02:03:58.118Z,100990.57
2018-06-19T02:06:27.831Z,100975.08
2018-06-19T02:08:57.775Z,100973.66
2018-06-19T02:11:27.306Z,100977.98
2018-06-19T02:13:56.810Z,100974.59
2018-06-19T02:16:26.786Z,100958.87
2018-06-19T02:18:56.583Z,100960.55
2018-06-19T02:21:26.162Z,100963.10
2018-06-19T02:23:55.882Z,100958.64
2018-06-19T02:26:25.623Z,100965.70
2018-06-19T02:28:55.097Z,100971.79
2018-06-19T02:31:24.727Z,100978.16
2018-06-19T02:33:54.508Z,100969.42
2018-06-19T02:36:23.833Z,100974.19
2018-06-19T02:38:53.492Z,100966.78
2018-06-19T02:41:23.038Z,100967.58
2018-06-19T02:43:52.393Z,100960.36
2018-06-19T02:46:22.054Z,100960.36
2018-06-19T02:48:51.685Z,100964.34
2018-06-19T02:51:21.177Z,100968.35
2018-06-19T02:53:50.929Z,100986.91
2018-06-19T02:56:20.652Z,100984.78
2018-06-19T02:58:50.067Z,100965.70
2018-06-19T03:01:19.558Z,100961.24
2018-06-19T03:03:49.257Z,100949.27
2018-06-19T03:06:18.812Z,100963.84
2018-06-19T03:08:48.674Z,100963.76
2018-06-19T03:11:18.369Z,100967.28
2018-06-19T03:13:47.893Z,100966.84
2018-06-19T03:16:17.653Z,100956.53
2018-06-19T03:18:47.158Z,100962.27
2018-06-19T03:21:17.147Z,100951.23
2018-06-19T03:23:47.181Z,100957.47
2018-06-19T03:26:16.887Z,100951.23
2018-06-19T03:28:46.219Z,100955.59
2018-06-19T03:31:15.877Z,100959.92
2018-06-19T03:33:45.413Z,100965.17
2018-06-19T03:36:15.052Z,100796.80
2018-06-19T03:38:45.626Z,100965.22
2018-06-19T03:41:15.480Z,100966.05
2018-06-19T03:43:44.998Z,100963.02
2018-06-19T03:46:14.745Z,100968.41
2018-06-19T03:48:44.568Z,100979.36
2018-06-19T03:51:14.102Z,100968.70
2018-06-19T03:53:43.713Z,100980.15
2018-06-19T03:56:13.330Z,100973.90
2018-06-19T03:58:42.801Z,100970.38
2018-06-19T04:01:12.346Z,100966.84
2018-06-19T04:03:42.098Z,100966.98
2018-06-19T04:06:11.544Z,100962.46
2018-06-19T04:08:41.135Z,100951.77
2018-06-19T04:11:10.673Z,100950.87
2018-06-19T04:13:40.190Z,100961.38
2018-06-19T04:16:09.992Z,100935.23
2018-06-19T04:18:39.659Z,100968.98
2018-06-19T04:21:09.584Z,100968.58
2018-06-19T04:23:39.254Z,100963.63
2018-06-19T04:26:09.304Z,100968.87
2018-06-19T04:28:39.018Z,100974.08
2018-06-19T04:31:11.384Z,100970.98
2018-06-19T04:33:41.563Z,100965.57
2018-06-19T04:36:13.298Z,100870.47
2018-06-19T04:38:42.712Z,100957.77
2018-06-19T04:41:12.114Z,100956.45
2018-06-19T04:43:41.765Z,100968.58
2018-06-19T04:46:11.656Z,100960.28
2018-06-19T04:48:41.289Z,100980.05
2018-06-19T04:51:11.174Z,100975.09
2018-06-19T04:53:40.778Z,100960.05
2018-06-19T04:56:10.429Z,100961.43
2018-06-19T04:58:40.564Z,100964.41
2018-06-19T05:01:10.213Z,100967.51
2018-06-19T05:03:39.870Z,100951.16
2018-06-19T05:06:09.415Z,100959.83
2018-06-19T05:08:38.813Z,100958.51
2018-06-19T05:11:08.447Z,100965.69
2018-06-19T05:13:37.984Z,100964.31
2018-06-19T05:16:07.069Z,100942.93
2018-06-19T05:18:36.835Z,100974.42
2018-06-19T05:21:06.617Z,100945.20
2018-06-19T05:23:36.088Z,100964.98
2018-06-19T05:26:05.768Z,100970.95
2018-06-19T05:28:35.256Z,100966.69
2018-06-19T05:31:04.999Z,100972.88
2018-06-19T05:33:34.430Z,100971.06
2018-06-19T05:36:03.957Z,100964.53
2018-06-19T05:38:33.559Z,100953.70
2018-06-19T05:41:02.949Z,100966.80
2018-06-19T05:43:32.598Z,100972.93
2018-06-19T05:46:02.469Z,100975.05
2018-06-19T05:48:31.877Z,100966.96
2018-06-19T05:51:01.394Z,100977.08
2018-06-19T05:53:31.207Z,100975.16
2018-06-19T05:56:01.021Z,100988.86
2018-06-19T05:58:30.670Z,100960.77
2018-06-19T06:01:00.161Z,100968.17
2018-06-19T06:03:29.833Z,100970.70
2018-06-19T06:05:59.457Z,100973.09
2018-06-19T06:08:28.936Z,100973.73
2018-06-19T06:10:58.811Z,100963.88
2018-06-19T06:13:28.631Z,100968.28
2018-06-19T06:15:58.079Z,100974.14
2018-06-19T06:18:27.797Z,100976.58
2018-06-19T06:20:57.236Z,100964.47
2018-06-19T06:23:26.682Z,100960.03
2018-06-19T06:25:56.000Z,100974.75
2018-06-19T06:28:25.693Z,100967.89
2018-06-19T06:30:55.195Z,100971.20
2018-06-19T06:33:24.970Z,100980.29
2018-06-19T06:35:54.836Z,100982.33
2018-06-19T06:38:24.348Z,100975.12
2018-06-19T06:40:53.997Z,100977.02
2018-06-19T06:43:23.573Z,100989.09
2018-06-19T06:45:53.325Z,100985.23
2018-06-19T06:48:22.629Z,100974.20
2018-06-19T06:50:52.211Z,100989.79
2018-06-19T06:53:21.901Z,100994.72
2018-06-19T06:55:51.497Z,101002.07
2018-06-19T06:58:21.544Z,100988.41
2018-06-19T07:00:51.013Z,100987.62
2018-06-19T07:03:21.623Z,100998.69
2018-06-19T07:05:51.294Z,100992.55
2018-06-19T07:08:21.056Z,100994.73
2018-06-19T07:10:51.128Z,100995.73
2018-06-19T07:13:21.427Z,100994.98
2018-06-19T07:15:51.731Z,101002.19
2018-06-19T07:18:21.800Z,101000.81
2018-06-19T07:20:51.597Z,100997.75
2018-06-19T07:23:21.052Z,101011.73
2018-06-19T07:25:50.882Z,101016.54
2018-06-19T07:28:20.403Z,101006.16
2018-06-19T07:30:49.746Z,101014.95
2018-06-19T07:33:19.491Z,101012.23
2018-06-19T07:35:49.133Z,100997.59
2018-06-19T07:38:18.528Z,101021.07
2018-06-19T07:40:48.295Z,101023.37
2018-06-19T07:43:18.122Z,101029.25
2018-06-19T07:45:47.208Z,101033.63
2018-06-19T07:48:16.826Z,101025.32
2018-06-19T07:50:46.580Z,101042.06
2018-06-19T07:53:16.039Z,101047.00
2018-06-19T07:55:45.284Z,101058.05
2018-06-19T07:58:15.108Z,101065.38
2018-06-19T08:00:44.509Z,101044.44
2018-06-19T08:03:13.581Z,101072.81
2018-06-19T08:05:43.172Z,101077.27
2018-06-19T08:08:13.001Z,101071.92
2018-06-19T08:10:42.340Z,101093.92
2018-06-19T08:13:12.010Z,101087.53
2018-06-19T08:15:41.973Z,101091.45
2018-06-19T08:18:11.629Z,101095.25
2018-06-19T08:20:41.297Z,101104.38
2018-06-19T08:23:10.960Z,101107.30
2018-06-19T08:25:40.460Z,101106.98
2018-06-19T08:28:10.220Z,101118.24
2018-06-19T08:30:39.986Z,101135.83
2018-06-19T08:33:09.540Z,101124.08
2018-06-19T08:35:38.787Z,101131.38
2018-06-19T08:38:08.235Z,101123.77
2018-06-19T08:40:37.901Z,101128.74
2018-06-19T08:43:07.540Z,101137.08
2018-06-19T08:45:37.125Z,101130.20
2018-06-19T08:48:06.882Z,101146.39
2018-06-19T08:50:36.629Z,101145.52
2018-06-19T08:53:05.981Z,101134.27
2018-06-19T08:55:35.260Z,101148.32
2018-06-19T08:58:05.120Z,101147.73
2018-06-19T09:00:34.663Z,101153.78
2018-06-19T09:03:04.174Z,101154.94
2018-06-19T09:05:33.780Z,101151.56
2018-06-19T09:08:03.546Z,101162.92
2018-06-19T09:10:33.149Z,101166.78
2018-06-19T09:13:02.687Z,101175.34
2018-06-19T09:15:32.217Z,101166.44
2018-06-19T09:18:02.105Z,101170.29
2018-06-19T09:20:32.327Z,101174.61
2018-06-19T09:23:01.985Z,101168.53
2018-06-19T09:25:31.612Z,101173.28
2018-06-19T09:28:01.437Z,101180.00
2018-06-19T09:30:30.943Z,101189.56
2018-06-19T09:33:00.727Z,101195.20
2018-06-19T09:35:30.376Z,101182.52
2018-06-19T09:37:59.983Z,101197.81
2018-06-19T09:40:29.589Z,101205.46
2018-06-19T09:42:59.204Z,101206.39
2018-06-19T09:45:28.856Z,101190.77
2018-06-19T09:47:58.440Z,101201.33
2018-06-19T09:50:28.082Z,101208.77
2018-06-19T09:52:57.980Z,101205.70
2018-06-19T09:55:27.027Z,101199.78
2018-06-19T09:57:56.411Z,101203.13
2018-06-19T10:00:31.264Z,101212.33
2018-06-19T10:03:01.138Z,101221.26
2018-06-19T10:05:31.781Z,101229.48
2018-06-19T10:08:01.682Z,101232.52
2018-06-19T10:10:31.214Z,101242.14
2018-06-19T10:13:00.760Z,101252.34
2018-06-19T10:15:30.515Z,101243.61
2018-06-19T10:17:59.695Z,101263.38
2018-06-19T10:20:29.258Z,101254.47
2018-06-19T10:22:59.062Z,101257.89
2018-06-19T10:25:28.295Z,101248.05
2018-06-19T10:27:57.511Z,101252.81
2018-06-19T10:30:27.398Z,101248.56
2018-06-19T10:32:56.593Z,101260.78
2018-06-19T10:35:26.120Z,101261.91
2018-06-19T10:37:55.563Z,101276.62
2018-06-19T10:40:25.360Z,101272.19
2018-06-19T10:42:55.032Z,101289.66
2018-06-19T10:45:24.454Z,101289.47
2018-06-19T10:47:54.057Z,101286.23
2018-06-19T10:50:23.583Z,101286.52
2018-06-19T10:52:53.241Z,101287.72
2018-06-19T10:55:22.902Z,101282.62
2018-06-19T10:57:52.588Z,101297.70
2018-06-19T11:00:22.411Z,101278.91
2018-06-19T11:02:52.296Z,101293.21
2018-06-19T11:05:21.729Z,101293.21
2018-06-19T11:07:51.366Z,101302.58
2018-06-19T11:10:21.011Z,101299.36
2018-06-19T11:12:50.388Z,101315.90
2018-06-19T11:15:20.175Z,101314.64
2018-06-19T11:17:49.907Z,101302.59
2018-06-19T11:20:19.405Z,101300.64
2018-06-19T11:22:49.202Z,101312.69
2018-06-19T11:25:18.908Z,101300.07
2018-06-19T11:27:48.354Z,101318.56
2018-06-19T11:30:18.314Z,101311.80
2018-06-19T11:32:48.106Z,101307.09
2018-06-19T11:35:17.296Z,101305.02
2018-06-19T11:37:47.003Z,101313.07
2018-06-19T11:40:16.633Z,101309.44
2018-06-19T11:42:46.056Z,101314.33
2018-06-19T11:45:15.918Z,101317.31
2018-06-19T11:47:45.706Z,101313.58
2018-06-19T11:50:15.475Z,101326.31
2018-06-19T11:52:45.457Z,101323.18
2018-06-19T11:55:15.064Z,101322.52
2018-06-19T11:57:45.175Z,101322.44
2018-06-19T12:00:14.462Z,101327.20
2018-06-19T12:02:44.048Z,101328.16
2018-06-19T12:05:13.568Z,101321.44
2018-06-19T12:07:44.630Z,101319.20
2018-06-19T12:10:14.135Z,101325.03
2018-06-19T12:12:43.565Z,101324.84
2018-06-19T12:15:12.971Z,101328.28
2018-06-19T12:17:42.590Z,101323.21
2018-06-19T12:20:12.304Z,101332.53
2018-06-19T12:22:41.825Z,101323.95
2018-06-19T12:25:11.433Z,101329.60
2018-06-19T12:27:40.853Z,101332.16
2018-06-19T12:30:10.258Z,101336.72
2018-06-19T12:32:39.966Z,101326.77
2018-06-19T12:35:09.321Z,101338.79
2018-06-19T12:37:39.182Z,101354.08
2018-06-19T12:40:08.702Z,101346.59
2018-06-19T12:42:38.005Z,101362.48
2018-06-19T12:45:08.033Z,101361.16
2018-06-19T12:47:37.299Z,101354.84
2018-06-19T12:52:20.028Z,101352.64
2018-06-19T12:55:31.158Z,101354.33
2018-06-19T12:58:01.125Z,101369.23
2018-06-19T13:00:30.626Z,101350.41
2018-06-19T13:03:10.929Z,101364.92
2018-06-19T13:05:51.316Z,101368.83
2018-06-19T13:08:21.417Z,101364.16
2018-06-19T13:10:50.769Z,101374.64
2018-06-19T13:13:31.734Z,101371.47
2018-06-19T13:16:01.155Z,101381.98
2018-06-19T13:18:42.217Z,101374.33
2018-06-19T13:21:11.991Z,101380.97
2018-06-19T13:23:41.448Z,101367.65
2018-06-19T13:26:10.975Z,101389.77
2018-06-19T13:30:03.217Z,101379.50
2018-06-19T13:32:33.436Z,101373.49
2018-06-19T13:35:03.938Z,101378.36
2018-06-19T13:37:33.686Z,101372.03
2018-06-19T13:41:16.585Z,101377.41
2018-06-19T13:43:57.393Z,101387.64
2018-06-19T13:46:27.344Z,101392.16
2018-06-19T13:48:56.739Z,101393.91
2018-06-19T13:51:27.169Z,101385.34
2018-06-19T13:53:56.784Z,101376.73
2018-06-19T13:57:10.971Z,101391.28
2018-06-19T13:59:41.212Z,101389.77
2018-06-19T14:02:11.289Z,101380.22
2018-06-19T14:04:40.639Z,101390.15
2018-06-19T14:07:09.825Z,101401.67
2018-06-19T14:09:50.740Z,101391.89
2018-06-19T14:12:32.757Z,101394.66
2018-06-19T14:15:02.273Z,101422.06
2018-06-19T14:17:32.188Z,101398.14
2018-06-19T14:20:01.793Z,101394.48
2018-06-19T14:22:31.984Z,101406.13
2018-06-19T14:25:01.302Z,101404.74
2018-06-19T14:27:30.952Z,101403.63
2018-06-19T14:30:00.719Z,101406.72
2018-06-19T14:32:30.634Z,101418.12
2018-06-19T14:35:00.055Z,101417.98
2018-06-19T14:37:29.803Z,101421.06
2018-06-19T14:39:59.712Z,101433.33
2018-06-19T14:42:29.411Z,101438.05
2018-06-19T14:44:59.034Z,101436.91
2018-06-19T14:47:29.274Z,101456.12
2018-06-19T14:50:00.390Z,101462.16
2018-06-19T14:52:30.994Z,101448.11
2018-06-19T14:55:01.317Z,101449.70
2018-06-19T14:57:31.072Z,101481.10
2018-06-19T15:00:01.223Z,101454.48
2018-06-19T15:02:31.298Z,101456.99
2018-06-19T15:05:01.010Z,101470.59
2018-06-19T15:07:35.513Z,101458.69
2018-06-19T15:10:05.630Z,101468.86
2018-06-19T15:12:35.514Z,101468.15
2018-06-19T15:15:05.850Z,101463.44
2018-06-19T15:17:36.035Z,101469.32
2018-06-19T15:20:05.780Z,101481.34
2018-06-19T15:22:35.900Z,101456.80
2018-06-19T15:25:06.120Z,101468.21
2018-06-19T15:27:35.746Z,101473.24
2018-06-19T15:30:05.880Z,101474.97
2018-06-19T15:32:35.684Z,101480.74
2018-06-19T15:35:05.609Z,101490.61
2018-06-19T15:37:35.271Z,101479.39
2018-06-19T15:40:05.197Z,101486.12
2018-06-19T15:42:34.692Z,101485.39
2018-06-19T15:45:04.293Z,101475.41
2018-06-19T15:47:33.826Z,101483.22
2018-06-19T15:50:02.947Z,101470.92
2018-06-19T15:52:32.662Z,101494.65
2018-06-19T15:55:02.117Z,101496.47
2018-06-19T15:57:31.456Z,101488.22
2018-06-19T16:00:00.872Z,101509.84
2018-06-19T16:02:30.596Z,101497.66
2018-06-19T16:05:00.298Z,101503.27
2018-06-19T16:07:29.786Z,101517.09
2018-06-19T16:09:59.171Z,101500.89
2018-06-19T16:12:28.336Z,101510.45
2018-06-19T16:14:57.640Z,101502.72
2018-06-19T16:17:27.242Z,101494.41
2018-06-19T16:19:56.541Z,101504.50
2018-06-19T16:22:26.159Z,101426.61
2018-06-19T16:24:55.565Z,101515.23
2018-06-19T16:27:24.937Z,101507.51
2018-06-19T16:29:54.300Z,101501.69
2018-06-19T16:32:23.670Z,101502.62
2018-06-19T16:34:53.215Z,101492.29
2018-06-19T16:37:22.638Z,101507.89
2018-06-19T16:39:52.273Z,101497.20
2018-06-19T16:42:21.660Z,101496.86
2018-06-19T16:44:50.951Z,101501.20
2018-06-19T16:47:20.236Z,101481.81
2018-06-19T16:49:49.623Z,101490.13
2018-06-19T16:52:19.099Z,101500.95
2018-06-19T16:54:48.585Z,101501.73
2018-06-19T16:57:18.134Z,101507.40
2018-06-19T16:59:47.666Z,101510.45
2018-06-19T17:02:17.505Z,101519.85
2018-06-19T17:04:47.354Z,101518.52
2018-06-19T17:07:17.348Z,101519.80
2018-06-19T17:09:46.939Z,101511.08
2018-06-19T17:12:16.032Z,101493.80
2018-06-19T17:14:45.338Z,101516.92
2018-06-19T17:17:15.022Z,101510.70
2018-06-19T17:19:44.455Z,101518.55
2018-06-19T17:22:13.706Z,101505.51
2018-06-19T17:24:43.318Z,101510.56
2018-06-19T17:27:12.759Z,101526.83
2018-06-19T17:29:42.214Z,101515.58
2018-06-19T17:32:11.939Z,101527.20
2018-06-19T17:34:41.129Z,101521.78
2018-06-19T17:37:10.498Z,101516.36
2018-06-19T17:39:40.183Z,101530.52
2018-06-19T17:42:09.657Z,101527.67
2018-06-19T17:44:39.146Z,101518.45
2018-06-19T17:47:09.329Z,101528.01
2018-06-19T17:49:39.330Z,101529.23
2018-06-19T17:52:08.943Z,101535.70
2018-06-19T17:54:38.456Z,101531.04
2018-06-19T17:57:08.201Z,101535.91
2018-06-19T17:59:37.859Z,101534.98
2018-06-19T18:02:07.172Z,101549.74
2018-06-19T18:04:36.535Z,101544.55
2018-06-19T18:07:06.403Z,101554.98
2018-06-19T18:09:35.789Z,101543.39
2018-06-19T18:12:05.046Z,101557.95
2018-06-19T18:14:34.857Z,101554.16
2018-06-19T18:17:04.114Z,101560.26
2018-06-19T18:19:33.651Z,101553.95
2018-06-19T18:22:03.060Z,101550.84
2018-06-19T18:24:32.469Z,101544.47
2018-06-19T18:27:02.214Z,101547.84
2018-06-19T18:29:31.973Z,101548.95
2018-06-19T18:32:01.498Z,101548.13
2018-06-19T18:34:30.700Z,101560.12
2018-06-19T18:37:00.305Z,101555.25
2018-06-19T18:39:29.792Z,101567.60
2018-06-19T18:41:59.087Z,101554.93
2018-06-19T18:44:28.516Z,101565.89
2018-06-19T18:46:58.238Z,101558.82
2018-06-19T18:49:27.506Z,101562.30
2018-06-19T18:51:57.013Z,101556.36
2018-06-19T18:54:26.430Z,101426.38
2018-06-19T18:56:56.005Z,101550.97
2018-06-19T18:59:25.648Z,101542.14
2018-06-19T19:01:54.864Z,101540.38
2018-06-19T19:04:24.138Z,101542.14
2018-06-19T19:06:53.589Z,101538.52
2018-06-19T19:09:23.278Z,101542.14
2018-06-19T19:11:52.954Z,101543.57
2018-06-19T19:14:22.893Z,101529.90
2018-06-19T19:16:57.135Z,101536.03
2018-06-19T19:19:27.033Z,101541.77
2018-06-19T19:21:56.458Z,101556.72
2018-06-19T19:24:25.606Z,101547.65
2018-06-19T19:27:00.587Z,101542.41
2018-06-19T19:29:35.377Z,101540.14
2018-06-19T19:32:05.310Z,101557.73
2018-06-19T19:34:34.805Z,101572.78
2018-06-19T19:38:09.402Z,101567.92
2018-06-19T19:40:39.008Z,101592.91
2018-06-19T19:43:08.965Z,101580.48
2018-06-19T19:45:38.449Z,101583.06
2018-06-19T19:48:13.157Z,101588.37
2018-06-19T19:50:43.171Z,101599.94
2018-06-19T19:53:12.696Z,101600.71
2018-06-19T19:55:47.325Z,101599.97
2018-06-19T19:58:22.402Z,101598.55
2018-06-19T20:00:51.810Z,101596.45
2018-06-19T20:03:21.505Z,101599.11
2018-06-19T20:05:50.639Z,101601.85
2018-06-19T20:08:25.409Z,101597.42
2018-06-19T20:10:55.144Z,101583.30
2018-06-19T20:13:24.645Z,101584.65
2018-06-19T20:15:54.205Z,101590.39
2018-06-19T20:18:23.596Z,101596.16
2018-06-19T20:20:53.203Z,101592.95
2018-06-19T20:23:22.400Z,101593.97
2018-06-19T20:25:52.456Z,101585.56
2018-06-19T20:28:21.852Z,101589.47
2018-06-19T20:30:51.129Z,101577.97
2018-06-19T20:33:20.601Z,101575.48
2018-06-19T20:35:50.049Z,101578.12
2018-06-19T20:38:20.437Z,101583.41
2018-06-19T20:40:49.836Z,101580.34
2018-06-19T20:43:19.206Z,101568.36
2018-06-19T20:45:48.768Z,101582.63
2018-06-19T20:48:18.119Z,101573.36
2018-06-19T20:50:47.567Z,101575.94
2018-06-19T20:53:16.978Z,101574.64
2018-06-19T20:55:46.336Z,101580.80
2018-06-19T20:58:15.745Z,101573.85
2018-06-19T21:00:45.018Z,101567.16
2018-06-19T21:03:14.435Z,101578.23
2018-06-19T21:05:44.349Z,101579.09
2018-06-19T21:08:13.910Z,101575.56
2018-06-19T21:10:43.450Z,101583.55
2018-06-19T21:13:13.212Z,101582.16
2018-06-19T21:15:42.841Z,101590.67
2018-06-19T21:18:12.369Z,101598.58
2018-06-19T21:20:41.905Z,101604.84
2018-06-19T21:23:11.512Z,101608.30
2018-06-19T21:25:41.506Z,101593.27
2018-06-19T21:28:11.928Z,101591.54
2018-06-19T21:30:41.737Z,101588.84
2018-06-19T21:33:11.518Z,101582.21
2018-06-19T21:35:41.434Z,101583.58
2018-06-19T21:38:10.919Z,101584.44
2018-06-19T21:40:40.529Z,101579.16
2018-06-19T21:43:10.509Z,101581.78
2018-06-19T21:45:39.836Z,101566.77
2018-06-19T21:48:09.355Z,101567.34
2018-06-19T21:50:39.180Z,101573.94
2018-06-19T21:53:08.933Z,101566.82
2018-06-19T21:55:38.711Z,101562.86
2018-06-19T21:58:08.212Z,101567.70
2018-06-19T22:00:37.996Z,101573.00
2018-06-19T22:03:07.437Z,101564.64
2018-06-19T22:05:37.091Z,101572.63
2018-06-19T22:08:06.695Z,101578.77
2018-06-19T22:10:36.596Z,101587.56
2018-06-19T22:13:06.282Z,101584.94
2018-06-19T22:15:35.891Z,101583.61
2018-06-19T22:18:06.060Z,101583.66
2018-06-19T22:20:36.036Z,101589.00
2018-06-19T22:23:06.228Z,101572.23
2018-06-19T22:25:35.761Z,101561.20
2018-06-19T22:28:06.284Z,101575.76
2018-06-19T22:30:36.280Z,101571.36
2018-06-19T22:33:05.945Z,101573.56
2018-06-19T22:35:36.334Z,101566.94
2018-06-19T22:38:05.970Z,101570.91
2018-06-19T22:40:35.942Z,101571.38
2018-06-19T22:43:06.158Z,101573.98
2018-06-19T22:45:36.300Z,101575.77
2018-06-19T22:48:06.680Z,101588.17
2018-06-19T22:50:36.199Z,101583.80
2018-06-19T22:53:05.753Z,101573.16
2018-06-19T22:55:35.911Z,101550.75
2018-06-19T22:58:05.880Z,101589.03
2018-06-19T23:00:36.071Z,101581.15
2018-06-19T23:03:06.511Z,101584.27
2018-06-19T23:05:37.614Z,101595.72
2018-06-19T23:08:07.489Z,101582.03
2018-06-19T23:10:37.720Z,101587.33
2018-06-19T23:13:07.862Z,101575.00
2018-06-19T23:15:37.817Z,101585.59
2018-06-19T23:18:07.533Z,101595.28
2018-06-19T23:20:37.825Z,101589.11
2018-06-19T23:23:07.878Z,101590.00
2018-06-19T23:25:37.603Z,101583.01
2018-06-19T23:28:07.689Z,101574.56
2018-06-19T23:30:37.988Z,101592.27
2018-06-19T23:33:07.762Z,101588.28
2018-06-19T23:35:37.957Z,101593.55
2018-06-19T23:38:08.187Z,101583.82
2018-06-19T23:40:38.230Z,101585.61
2018-06-19T23:43:08.360Z,101588.73
2018-06-19T23:45:38.545Z,101593.09
2018-06-19T23:48:08.638Z,101594.48
2018-06-19T23:50:38.330Z,101602.83
2018-06-19T23:53:08.204Z,101604.63
2018-06-19T23:55:38.046Z,101599.77
2018-06-19T23:58:07.867Z,101600.62
